createdAt,value
2023-02-17T00:01:31.887Z,15.57
2023-02-17T00:03:59.748Z,14.23
2023-02-17T00:06:30.661Z,14.63
2023-02-17T00:08:58.192Z,15.07
2023-02-17T00:11:25.933Z,15.55
2023-02-17T00:13:55.202Z,14.93
2023-02-17T00:16:26.446Z,15.07
2023-02-17T00:18:57.015Z,14.70
2023-02-17T00:21:28.633Z,15.15
2023-02-17T00:23:57.791Z,15.43
2023-02-17T00:26:24.543Z,15.50
2023-02-17T00:28:51.310Z,14.70
2023-02-17T00:31:21.669Z,15.65
2023-02-17T00:33:49.085Z,14.98
2023-02-17T00:36:19.873Z,15.30
2023-02-17T00:38:48.326Z,14.30
2023-02-17T00:41:16.561Z,15.02
2023-02-17T00:43:43.391Z,15.05
2023-02-17T00:46:10.372Z,15.18
2023-02-17T00:48:37.265Z,16.95
2023-02-17T00:51:04.267Z,15.00
2023-02-17T00:53:31.021Z,15.35
2023-02-17T00:55:57.754Z,15.52
2023-02-17T00:58:25.298Z,15.43
2023-02-17T01:00:52.316Z,15.60
2023-02-17T01:03:19.403Z,14.93
2023-02-17T01:05:49.343Z,14.23
2023-02-17T01:08:17.776Z,14.15
2023-02-17T01:10:47.224Z,14.10
2023-02-17T01:13:16.771Z,14.93
2023-02-17T01:15:53.382Z,15.05
2023-02-17T01:18:23.813Z,15.95
2023-02-17T01:20:51.057Z,14.35
2023-02-17T01:23:18.152Z,14.35
2023-02-17T01:25:47.473Z,15.25
2023-02-17T01:28:21.335Z,14.85
2023-02-17T01:30:49.120Z,14.93
2023-02-17T01:33:15.916Z,15.38
2023-02-17T01:35:42.674Z,15.02
2023-02-17T01:38:09.495Z,14.55
2023-02-17T01:40:36.419Z,15.45
2023-02-17T01:43:03.689Z,15.40
2023-02-17T01:45:36.079Z,13.65
2023-02-17T01:48:30.720Z,15.00
2023-02-17T01:51:08.919Z,13.88
2023-02-17T01:53:44.151Z,14.45
2023-02-17T01:56:14.767Z,13.90
2023-02-17T01:58:47.027Z,14.90
2023-02-17T02:01:13.810Z,14.15
2023-02-17T02:03:40.957Z,15.48
2023-02-17T02:06:16.706Z,14.85
2023-02-17T02:09:18.794Z,14.18
2023-02-17T02:11:50.830Z,14.00
2023-02-17T02:14:19.959Z,14.48
2023-02-17T02:17:31.582Z,15.07
2023-02-17T02:20:08.632Z,13.80
2023-02-17T02:23:21.220Z,15.32
2023-02-17T02:26:45.890Z,14.35
2023-02-17T02:29:47.470Z,14.30
2023-02-17T02:33:17.063Z,13.68
2023-02-17T02:36:05.333Z,14.93
2023-02-17T02:39:01.501Z,14.65
2023-02-17T02:41:37.217Z,14.93
2023-02-17T02:44:07.781Z,16.30
2023-02-17T02:46:34.576Z,16.20
2023-02-17T02:49:03.377Z,15.20
2023-02-17T02:51:43.051Z,15.38
2023-02-17T02:54:56.118Z,16.00
2023-02-17T02:57:43.985Z,14.80
2023-02-17T03:00:42.780Z,15.60
2023-02-17T03:03:37.471Z,15.35
2023-02-17T03:06:26.286Z,15.73
2023-02-17T03:09:06.294Z,15.60
2023-02-17T03:11:33.117Z,15.07
2023-02-17T03:14:06.188Z,15.85
2023-02-17T03:16:35.195Z,15.57
2023-02-17T03:19:02.198Z,16.65
2023-02-17T03:21:48.260Z,15.27
2023-02-17T03:24:15.538Z,15.57
2023-02-17T03:26:42.253Z,15.07
2023-02-17T03:29:09.158Z,15.68
2023-02-17T03:31:36.507Z,15.38
2023-02-17T03:34:03.519Z,15.52
2023-02-17T03:36:30.521Z,15.73
2023-02-17T03:38:57.923Z,15.73
2023-02-17T03:41:25.891Z,14.98
2023-02-17T03:43:52.863Z,15.73
2023-02-17T03:46:20.185Z,15.63
2023-02-17T03:48:46.930Z,16.23
2023-02-17T03:51:24.328Z,15.75
2023-02-17T03:53:51.844Z,15.98
2023-02-17T03:56:19.375Z,16.35
2023-02-17T03:58:46.206Z,16.88
2023-02-17T04:01:14.673Z,16.45
2023-02-17T04:03:42.115Z,16.17
2023-02-17T04:06:10.407Z,16.08
2023-02-17T04:08:39.036Z,15.85
2023-02-17T04:11:08.450Z,15.73
2023-02-17T04:13:36.225Z,16.30
2023-02-17T04:16:07.270Z,16.70
2023-02-17T04:18:35.080Z,15.10
2023-02-17T04:21:02.267Z,15.85
2023-02-17T04:23:29.401Z,15.70
2023-02-17T04:25:56.173Z,15.05
2023-02-17T04:28:23.316Z,15.70
2023-02-17T04:30:51.708Z,15.77
2023-02-17T04:33:19.029Z,15.73
2023-02-17T04:35:47.252Z,15.05
2023-02-17T04:38:14.022Z,15.07
2023-02-17T04:40:40.842Z,15.75
2023-02-17T04:43:08.552Z,16.08
2023-02-17T04:45:37.590Z,16.15
2023-02-17T04:48:04.623Z,15.55
2023-02-17T04:50:31.374Z,14.48
2023-02-17T04:52:58.180Z,14.32
2023-02-17T04:55:24.918Z,14.38
2023-02-17T04:57:51.684Z,14.70
2023-02-17T05:00:18.837Z,14.32
2023-02-17T05:02:45.584Z,13.27
2023-02-17T05:05:15.471Z,15.55
2023-02-17T05:07:43.013Z,14.40
2023-02-17T05:10:10.147Z,13.13
2023-02-17T05:12:37.746Z,14.38
2023-02-17T05:15:05.399Z,13.68
2023-02-17T05:17:32.458Z,13.65
2023-02-17T05:19:59.274Z,14.23
2023-02-17T05:22:26.330Z,14.25
2023-02-17T05:24:53.592Z,13.55
2023-02-17T05:27:20.475Z,14.07
2023-02-17T05:29:47.420Z,14.30
2023-02-17T05:32:14.179Z,14.15
2023-02-17T05:34:41.015Z,13.73
2023-02-17T05:37:07.933Z,14.27
2023-02-17T05:39:34.956Z,15.55
2023-02-17T05:42:01.807Z,13.85
2023-02-17T05:44:28.569Z,14.68
2023-02-17T05:46:55.378Z,13.38
2023-02-17T05:49:22.115Z,14.35
2023-02-17T05:51:49.336Z,14.65
2023-02-17T05:54:16.091Z,15.15
2023-02-17T05:56:42.835Z,14.48
2023-02-17T05:59:09.620Z,14.25
2023-02-17T06:01:37.407Z,13.73
2023-02-17T06:04:05.249Z,14.15
2023-02-17T06:06:31.977Z,14.40
2023-02-17T06:08:58.842Z,14.80
2023-02-17T06:11:26.280Z,14.35
2023-02-17T06:13:53.071Z,14.50
2023-02-17T06:16:20.032Z,14.85
2023-02-17T06:18:46.872Z,13.82
2023-02-17T06:21:13.764Z,14.40
2023-02-17T06:23:40.773Z,14.15
2023-02-17T06:26:07.942Z,13.68
2023-02-17T06:28:35.229Z,13.50
2023-02-17T06:31:02.520Z,13.77
2023-02-17T06:33:29.345Z,13.65
2023-02-17T06:35:56.118Z,12.48
2023-02-17T06:38:23.199Z,13.27
2023-02-17T06:40:49.970Z,12.57
2023-02-17T06:43:16.747Z,13.63
2023-02-17T06:45:43.768Z,12.48
2023-02-17T06:48:10.814Z,12.35
2023-02-17T06:50:38.235Z,13.80
2023-02-17T06:53:05.339Z,13.48
2023-02-17T06:55:32.364Z,12.88
2023-02-17T06:57:59.078Z,13.45
2023-02-17T07:00:27.077Z,13.15
2023-02-17T07:02:53.919Z,12.13
2023-02-17T07:05:20.755Z,12.93
2023-02-17T07:07:47.469Z,11.98
2023-02-17T07:10:14.232Z,11.68
2023-02-17T07:12:40.965Z,13.98
2023-02-17T07:15:11.838Z,14.55
2023-02-17T07:17:38.932Z,12.32
2023-02-17T07:20:06.890Z,11.18
2023-02-17T07:22:33.586Z,11.05
2023-02-17T07:25:00.572Z,11.27
2023-02-17T07:27:27.336Z,11.32
2023-02-17T07:29:54.082Z,10.50
2023-02-17T07:32:20.785Z,10.80
2023-02-17T07:34:47.905Z,10.52
2023-02-17T07:37:14.775Z,11.50
2023-02-17T07:39:41.565Z,10.57
2023-02-17T07:42:09.802Z,10.60
2023-02-17T07:44:36.520Z,10.80
2023-02-17T07:47:03.276Z,11.25
2023-02-17T07:49:30.053Z,9.82
2023-02-17T07:51:56.799Z,12.40
2023-02-17T07:54:23.757Z,14.50
2023-02-17T07:56:50.509Z,12.93
2023-02-17T07:59:17.233Z,11.07
2023-02-17T08:01:44.040Z,10.98
2023-02-17T08:04:10.836Z,10.13
2023-02-17T08:06:40.120Z,9.90
2023-02-17T08:09:25.517Z,10.32
2023-02-17T08:12:10.870Z,9.95
2023-02-17T08:14:38.623Z,9.80
2023-02-17T08:17:05.965Z,10.55
2023-02-17T08:19:46.910Z,9.43
2023-02-17T08:22:16.712Z,10.02
2023-02-17T08:24:43.634Z,9.48
2023-02-17T08:27:10.408Z,8.95
2023-02-17T08:29:37.207Z,9.55
2023-02-17T08:32:04.186Z,8.93
2023-02-17T08:34:34.088Z,9.30
2023-02-17T08:37:02.057Z,9.50
2023-02-17T08:39:29.254Z,8.73
2023-02-17T08:41:56.401Z,9.23
2023-02-17T08:44:23.649Z,8.45
2023-02-17T08:46:51.791Z,8.25
2023-02-17T08:49:23.384Z,7.85
2023-02-17T08:51:51.620Z,8.60
2023-02-17T08:54:18.925Z,8.32
2023-02-17T08:56:45.898Z,7.90
2023-02-17T08:59:13.706Z,7.80
2023-02-17T09:01:41.687Z,8.80
2023-02-17T09:04:11.934Z,8.57
2023-02-17T09:06:50.504Z,7.93
2023-02-17T09:09:22.575Z,7.88
2023-02-17T09:11:49.740Z,7.15
2023-02-17T09:14:16.606Z,7.25
2023-02-17T09:16:43.525Z,7.70
2023-02-17T09:19:10.320Z,7.47
2023-02-17T09:21:37.241Z,7.75
2023-02-17T09:24:04.361Z,7.97
2023-02-17T09:26:31.114Z,8.85
2023-02-17T09:28:58.599Z,8.23
2023-02-17T09:31:27.291Z,8.65
2023-02-17T09:33:55.272Z,7.80
2023-02-17T09:36:26.920Z,8.15
2023-02-17T09:38:54.612Z,8.82
2023-02-17T09:41:40.981Z,8.00
2023-02-17T09:44:40.884Z,7.53
2023-02-17T09:47:32.406Z,7.22
2023-02-17T09:50:14.043Z,8.10
2023-02-17T09:52:53.509Z,8.27
2023-02-17T09:55:33.261Z,8.25
2023-02-17T09:58:50.369Z,7.90
2023-02-17T10:01:25.790Z,7.35
2023-02-17T10:04:00.952Z,7.93
2023-02-17T10:06:35.606Z,7.43
2023-02-17T10:09:22.845Z,8.35
2023-02-17T10:12:14.006Z,8.32
2023-02-17T10:14:53.975Z,8.77
2023-02-17T10:17:43.972Z,8.73
2023-02-17T10:20:28.367Z,8.65
2023-02-17T10:23:26.495Z,7.95
2023-02-17T10:27:08.349Z,8.18
2023-02-17T10:30:03.981Z,7.30
2023-02-17T10:32:44.459Z,7.97
2023-02-17T10:35:34.020Z,7.70
2023-02-17T10:38:31.570Z,8.40
2023-02-17T10:41:04.043Z,7.25
2023-02-17T10:43:33.491Z,8.05
2023-02-17T10:46:05.108Z,8.73
2023-02-17T10:48:38.494Z,8.70
2023-02-17T10:51:05.594Z,8.77
2023-02-17T10:53:38.245Z,8.55
2023-02-17T10:56:21.723Z,8.73
2023-02-17T10:59:11.943Z,7.93
2023-02-17T11:01:39.172Z,8.50
2023-02-17T11:04:13.839Z,8.48
2023-02-17T11:06:50.880Z,8.02
2023-02-17T11:09:28.629Z,8.13
2023-02-17T11:12:01.251Z,8.48
2023-02-17T11:14:35.556Z,8.25
2023-02-17T11:17:35.748Z,8.20
2023-02-17T11:20:30.392Z,9.30
2023-02-17T11:23:14.167Z,8.00
2023-02-17T11:25:43.240Z,7.45
2023-02-17T11:28:25.961Z,8.10
2023-02-17T11:30:59.544Z,7.95
2023-02-17T11:33:39.162Z,8.60
2023-02-17T11:36:08.568Z,8.18
2023-02-17T11:38:38.329Z,7.80
2023-02-17T11:41:07.811Z,8.02
2023-02-17T11:43:36.424Z,8.95
2023-02-17T11:46:22.808Z,8.75
2023-02-17T11:49:23.190Z,7.60
2023-02-17T11:52:11.956Z,7.75
2023-02-17T11:55:04.777Z,8.25
2023-02-17T11:57:41.219Z,7.65
2023-02-17T12:00:27.347Z,7.18
2023-02-17T12:03:21.449Z,6.72
2023-02-17T12:05:48.062Z,7.32
2023-02-17T12:08:27.370Z,7.72
2023-02-17T12:11:26.344Z,6.78
2023-02-17T12:14:33.412Z,6.65
2023-02-17T12:17:13.657Z,6.93
2023-02-17T12:20:08.382Z,6.15
2023-02-17T12:23:02.281Z,5.63
2023-02-17T12:25:39.910Z,6.15
2023-02-17T12:28:38.743Z,7.18
2023-02-17T12:31:54.899Z,6.05
2023-02-17T12:34:44.011Z,6.03
2023-02-17T12:37:28.368Z,6.18
2023-02-17T12:40:16.032Z,5.95
2023-02-17T12:42:55.689Z,6.05
2023-02-17T12:45:39.893Z,5.57
2023-02-17T12:50:56.313Z,4.85
2023-02-17T12:53:58.827Z,5.47
2023-02-17T12:56:25.460Z,4.32
2023-02-17T12:58:56.401Z,5.07
2023-02-17T13:01:31.341Z,4.82
2023-02-17T13:04:00.199Z,4.63
2023-02-17T13:06:38.158Z,4.95
2023-02-17T13:09:37.321Z,5.28
2023-02-17T13:12:24.674Z,4.95
2023-02-17T13:14:58.961Z,4.10
2023-02-17T13:17:27.067Z,5.53
2023-02-17T13:20:11.414Z,4.60
2023-02-17T13:22:40.561Z,4.07
2023-02-17T13:25:13.650Z,4.15
2023-02-17T13:27:41.141Z,4.10
2023-02-17T13:30:24.402Z,4.20
2023-02-17T13:33:21.660Z,3.85
2023-02-17T13:35:49.480Z,3.67
2023-02-17T13:38:28.946Z,3.47
2023-02-17T13:41:00.659Z,3.88
2023-02-17T13:43:33.637Z,3.58
2023-02-17T13:46:05.481Z,3.37
2023-02-17T13:48:35.219Z,3.42
2023-02-17T13:51:04.464Z,3.65
2023-02-17T13:53:38.936Z,3.33
2023-02-17T13:56:28.702Z,3.17
2023-02-17T13:59:17.406Z,3.45
2023-02-17T14:01:46.463Z,3.78
2023-02-17T14:04:28.285Z,3.50
2023-02-17T14:06:59.829Z,2.67
2023-02-17T14:09:33.913Z,3.05
2023-02-17T14:12:07.870Z,3.17
2023-02-17T14:14:39.329Z,3.28
2023-02-17T14:17:09.046Z,3.22
2023-02-17T14:19:48.599Z,3.50
2023-02-17T14:22:29.031Z,2.97
2023-02-17T14:25:01.829Z,3.20
2023-02-17T14:27:29.002Z,3.00
2023-02-17T14:29:55.807Z,3.60
2023-02-17T14:32:34.728Z,3.70
2023-02-17T14:35:13.689Z,2.85
2023-02-17T14:37:42.114Z,3.50
2023-02-17T14:40:25.154Z,3.38
2023-02-17T14:42:52.049Z,3.55
2023-02-17T14:45:19.680Z,3.70
2023-02-17T14:47:47.445Z,3.40
2023-02-17T14:50:17.336Z,4.32
2023-02-17T14:52:49.374Z,4.57
2023-02-17T14:55:38.913Z,3.45
2023-02-17T14:58:05.819Z,3.60
2023-02-17T15:00:32.678Z,4.22
2023-02-17T15:02:59.616Z,4.15
2023-02-17T15:05:26.432Z,4.13
2023-02-17T15:07:53.284Z,4.03
2023-02-17T15:10:28.777Z,4.68
2023-02-17T15:12:56.841Z,3.95
2023-02-17T15:15:23.718Z,4.75
2023-02-17T15:17:50.622Z,4.25
2023-02-17T15:20:17.771Z,4.50
2023-02-17T15:22:44.672Z,4.10
2023-02-17T15:25:14.299Z,4.63
2023-02-17T15:27:41.237Z,3.83
2023-02-17T15:30:16.667Z,4.07
2023-02-17T15:32:44.328Z,4.63
2023-02-17T15:35:27.457Z,4.88
2023-02-17T15:37:56.637Z,4.28
2023-02-17T15:40:27.493Z,4.50
2023-02-17T15:42:57.374Z,4.65
2023-02-17T15:45:25.088Z,4.65
2023-02-17T15:48:03.890Z,5.10
2023-02-17T15:50:30.896Z,5.15
2023-02-17T15:52:58.428Z,5.13
2023-02-17T15:55:28.215Z,4.90
2023-02-17T15:57:59.119Z,4.70
2023-02-17T16:00:29.519Z,4.80
2023-02-17T16:02:56.594Z,5.05
2023-02-17T16:05:27.203Z,5.30
2023-02-17T16:07:55.031Z,4.95
2023-02-17T16:10:27.252Z,4.57
2023-02-17T16:12:58.029Z,5.53
2023-02-17T16:15:26.441Z,4.78
2023-02-17T16:17:53.290Z,5.20
2023-02-17T16:20:35.415Z,5.15
2023-02-17T16:23:02.842Z,6.55
2023-02-17T16:25:30.194Z,5.60
2023-02-17T16:27:57.606Z,5.50
2023-02-17T16:30:34.741Z,5.55
2023-02-17T16:33:02.832Z,5.88
2023-02-17T16:35:32.524Z,5.55
2023-02-17T16:38:08.339Z,5.78
2023-02-17T16:40:47.114Z,5.53
2023-02-17T16:43:21.518Z,5.57
2023-02-17T16:46:01.514Z,5.20
2023-02-17T16:48:33.889Z,5.18
2023-02-17T16:51:00.840Z,4.70
2023-02-17T16:53:27.736Z,4.38
2023-02-17T16:55:55.799Z,4.43
2023-02-17T16:58:25.807Z,4.43
2023-02-17T17:00:55.883Z,4.15
2023-02-17T17:03:22.795Z,4.10
2023-02-17T17:05:52.334Z,4.45
2023-02-17T17:08:21.563Z,3.88
2023-02-17T17:10:49.382Z,4.57
2023-02-17T17:13:16.353Z,4.15
2023-02-17T17:15:45.768Z,3.78
2023-02-17T17:18:21.406Z,3.72
2023-02-17T17:20:49.082Z,3.95
2023-02-17T17:23:16.327Z,3.60
2023-02-17T17:25:46.623Z,4.07
2023-02-17T17:28:16.841Z,3.50
2023-02-17T17:30:44.222Z,4.30
2023-02-17T17:33:11.359Z,3.17
2023-02-17T17:35:38.336Z,3.85
2023-02-17T17:38:05.505Z,3.20
2023-02-17T17:40:48.289Z,2.97
2023-02-17T17:43:18.679Z,2.72
2023-02-17T17:45:46.094Z,3.10
2023-02-17T17:48:15.336Z,3.03
2023-02-17T17:50:43.173Z,2.80
2023-02-17T17:53:10.063Z,2.50
2023-02-17T17:55:38.251Z,2.60
2023-02-17T17:58:05.175Z,3.20
2023-02-17T18:00:31.907Z,3.33
2023-02-17T18:02:58.654Z,3.53
2023-02-17T18:05:26.043Z,3.08
2023-02-17T18:07:53.193Z,2.97
2023-02-17T18:10:20.339Z,3.33
2023-02-17T18:12:48.076Z,3.25
2023-02-17T18:15:17.171Z,2.88
2023-02-17T18:17:47.342Z,2.60
2023-02-17T18:20:14.990Z,2.70
2023-02-17T18:22:41.939Z,2.25
2023-02-17T18:25:09.678Z,1.98
2023-02-17T18:27:45.348Z,2.00
2023-02-17T18:30:17.561Z,1.90
2023-02-17T18:32:44.476Z,1.67
2023-02-17T18:35:12.754Z,1.73
2023-02-17T18:37:41.020Z,1.70
2023-02-17T18:40:13.526Z,1.70
2023-02-17T18:42:41.900Z,1.80
2023-02-17T18:45:09.568Z,1.67
2023-02-17T18:47:36.351Z,1.70
2023-02-17T18:50:05.255Z,2.30
2023-02-17T18:52:32.073Z,1.75
2023-02-17T18:54:59.338Z,1.50
2023-02-17T18:57:26.716Z,1.60
2023-02-17T18:59:53.489Z,1.73
2023-02-17T19:02:21.958Z,2.15
2023-02-17T19:04:48.765Z,2.00
2023-02-17T19:07:15.550Z,1.67
2023-02-17T19:09:42.401Z,1.38
2023-02-17T19:12:13.307Z,1.15
2023-02-17T19:14:41.669Z,1.30
2023-02-17T19:17:09.862Z,1.60
2023-02-17T19:19:41.659Z,1.70
2023-02-17T19:22:09.383Z,1.20
2023-02-17T19:24:38.890Z,1.67
2023-02-17T19:27:06.835Z,1.33
2023-02-17T19:29:34.508Z,1.00
2023-02-17T19:32:03.666Z,1.40
2023-02-17T19:34:31.337Z,1.25
2023-02-17T19:36:58.357Z,1.05
2023-02-17T19:39:25.624Z,1.60
2023-02-17T19:41:52.417Z,1.65
2023-02-17T19:44:19.979Z,1.50
2023-02-17T19:46:46.754Z,1.45
2023-02-17T19:49:13.603Z,1.40
2023-02-17T19:51:40.311Z,1.55
2023-02-17T19:54:07.066Z,1.40
2023-02-17T19:56:36.253Z,1.58
2023-02-17T19:59:03.408Z,1.85
2023-02-17T20:01:32.692Z,2.38
2023-02-17T20:04:02.008Z,1.80
2023-02-17T20:06:34.683Z,1.50
2023-02-17T20:09:06.595Z,1.27
2023-02-17T20:11:33.733Z,1.48
2023-02-17T20:14:02.510Z,1.90
2023-02-17T20:16:30.234Z,1.30
2023-02-17T20:18:57.109Z,1.40
2023-02-17T20:21:28.136Z,1.33
2023-02-17T20:23:55.739Z,1.75
2023-02-17T20:26:30.774Z,1.85
2023-02-17T20:28:58.316Z,1.75
2023-02-17T20:31:26.556Z,1.73
2023-02-17T20:33:53.855Z,1.88
2023-02-17T20:36:22.250Z,1.75
2023-02-17T20:38:50.391Z,1.90
2023-02-17T20:41:21.105Z,2.00
2023-02-17T20:43:48.436Z,2.13
2023-02-17T20:46:24.189Z,2.00
2023-02-17T20:48:52.005Z,1.88
2023-02-17T20:51:19.741Z,1.98
2023-02-17T20:53:46.814Z,1.88
2023-02-17T20:56:18.075Z,1.92
2023-02-17T20:58:46.078Z,2.53
2023-02-17T21:01:13.205Z,1.95
2023-02-17T21:03:40.276Z,2.42
2023-02-17T21:06:26.430Z,2.33
2023-02-17T21:08:58.842Z,2.47
2023-02-17T21:11:26.685Z,2.28
2023-02-17T21:13:54.351Z,1.88
2023-02-17T21:16:28.443Z,2.13
2023-02-17T21:18:55.262Z,2.17
2023-02-17T21:21:22.078Z,2.20
2023-02-17T21:23:48.926Z,2.03
2023-02-17T21:26:16.501Z,2.38
2023-02-17T21:28:46.864Z,2.00
2023-02-17T21:31:15.192Z,2.28
2023-02-17T21:33:43.507Z,2.30
2023-02-17T21:36:13.956Z,2.35
2023-02-17T21:38:40.763Z,2.30
2023-02-17T21:41:12.140Z,2.30
2023-02-17T21:43:58.488Z,2.38
2023-02-17T21:46:26.583Z,2.30
2023-02-17T21:48:54.732Z,2.35
2023-02-17T21:51:21.471Z,2.25
2023-02-17T21:53:48.278Z,2.30
2023-02-17T21:56:15.534Z,2.85
2023-02-17T21:58:51.658Z,1.95
2023-02-17T22:01:19.105Z,2.05
2023-02-17T22:03:45.929Z,2.33
2023-02-17T22:06:25.045Z,2.30
2023-02-17T22:08:52.622Z,2.47
2023-02-17T22:11:33.310Z,2.70
2023-02-17T22:14:04.809Z,2.53
2023-02-17T22:16:35.363Z,2.53
2023-02-17T22:19:04.027Z,2.40
2023-02-17T22:21:31.252Z,2.10
2023-02-17T22:23:59.483Z,2.78
2023-02-17T22:26:27.506Z,2.17
2023-02-17T22:28:54.596Z,2.33
2023-02-17T22:31:25.476Z,2.33
2023-02-17T22:33:52.259Z,2.10
2023-02-17T22:36:22.606Z,2.22
2023-02-17T22:38:50.525Z,3.08
2023-02-17T22:41:24.191Z,2.05
2023-02-17T22:43:52.147Z,2.38
2023-02-17T22:46:22.670Z,2.30
2023-02-17T22:48:51.937Z,2.35
2023-02-17T22:51:26.652Z,2.15
2023-02-17T22:53:53.489Z,2.55
2023-02-17T22:56:22.463Z,2.72
2023-02-17T22:58:55.678Z,2.60
2023-02-17T23:01:23.956Z,2.15
2023-02-17T23:03:54.471Z,2.50
2023-02-17T23:06:32.325Z,2.20
2023-02-17T23:09:00.767Z,2.55
2023-02-17T23:11:52.739Z,2.55
2023-02-17T23:14:26.696Z,2.35
2023-02-17T23:19:23.410Z,2.40
2023-02-17T23:21:55.569Z,2.42
2023-02-17T23:24:25.035Z,2.50
2023-02-17T23:26:52.945Z,2.80
2023-02-17T23:29:19.854Z,2.50
2023-02-17T23:31:46.772Z,3.47
2023-02-17T23:34:15.715Z,2.33
2023-02-17T23:36:44.464Z,3.17
2023-02-17T23:39:12.259Z,2.45
2023-02-17T23:41:40.083Z,2.47
2023-02-17T23:44:10.863Z,2.70
2023-02-17T23:46:38.136Z,2.75
2023-02-17T23:49:04.907Z,2.97
2023-02-17T23:51:32.206Z,3.03
2023-02-17T23:53:58.999Z,2.53
2023-02-17T23:56:35.235Z,2.60
2023-02-17T23:59:02.330Z,3.03
